Terminal Aerodrome Forecast
Issued by NWS

Home | Current Version | Previous Version | Graphics & Text | Print | Product List | Glossary On
Versions: 1 2 3 4 5 6 7 8 9 10 11 12 13 14 15 16 17 18 19 20 21 22 23 24 25 26 27 28 29 30 31 32
000
FTUS43 KLOT 261749
TAFMDW
TAF
KMDW 261749Z 2618/2718 31011G18KT P6SM BKN035
     FM270100 35009KT P6SM BKN035
     FM270500 01012KT 4SM -SHSN BKN020 OVC040
     FM271200 01012KT P6SM -SHSN BKN025 OVC040
     FM271500 36010G18KT P6SM BKN035 BKN060=

USA.gov is the U.S. government's official web portal to all federal, state and local government web resources and services.